createdAt,value
2017-11-05T00:00:53.852Z,48.40
2017-11-05T00:03:21.429Z,49.00
2017-11-05T00:05:48.884Z,49.60
2017-11-05T00:08:16.648Z,49.10
2017-11-05T00:10:44.309Z,48.80
2017-11-05T00:13:11.805Z,49.00
2017-11-05T00:15:39.241Z,49.50
2017-11-05T00:18:06.671Z,49.40
2017-11-05T00:20:34.437Z,49.50
2017-11-05T00:23:02.000Z,50.50
2017-11-05T00:25:29.757Z,49.90
2017-11-05T00:27:57.188Z,48.50
2017-11-05T00:30:24.669Z,48.50
2017-11-05T00:32:52.104Z,46.40
2017-11-05T00:35:19.538Z,47.90
2017-11-05T00:37:46.968Z,49.40
2017-11-05T00:40:14.400Z,50.00
2017-11-05T00:42:41.836Z,51.00
2017-11-05T00:45:09.352Z,51.10
2017-11-05T00:47:36.791Z,51.80
2017-11-05T00:50:04.233Z,52.40
2017-11-05T00:52:31.670Z,53.00
2017-11-05T00:54:59.140Z,54.00
2017-11-05T00:57:26.696Z,54.00
2017-11-05T00:59:54.324Z,53.80
2017-11-05T01:02:21.887Z,52.70
2017-11-05T01:04:49.324Z,50.50
2017-11-05T01:07:16.764Z,49.50
2017-11-05T01:09:44.280Z,48.50
2017-11-05T01:12:11.928Z,47.90
2017-11-05T01:14:39.426Z,47.80
2017-11-05T01:17:06.864Z,49.80
2017-11-05T01:19:35.335Z,52.80
2017-11-05T01:22:02.878Z,52.90
2017-11-05T01:24:30.456Z,53.50
2017-11-05T01:26:58.012Z,53.90
2017-11-05T01:29:25.697Z,54.00
2017-11-05T01:31:53.128Z,54.80
2017-11-05T01:34:20.689Z,54.80
2017-11-05T01:36:48.116Z,55.10
2017-11-05T01:39:15.611Z,55.50
2017-11-05T01:41:43.200Z,55.40
2017-11-05T01:44:10.641Z,55.30
2017-11-05T01:46:38.275Z,55.50
2017-11-05T01:49:05.716Z,55.50
2017-11-05T01:51:33.192Z,56.00
2017-11-05T01:54:00.952Z,56.30
2017-11-05T01:56:28.381Z,56.50
2017-11-05T01:58:55.865Z,57.00
2017-11-05T02:01:23.311Z,57.70
2017-11-05T02:03:50.776Z,58.70
2017-11-05T02:06:18.207Z,59.30
2017-11-05T02:08:45.644Z,60.00
2017-11-05T02:11:13.151Z,59.50
2017-11-05T02:13:40.577Z,59.70
2017-11-05T02:16:08.012Z,59.80
2017-11-05T02:18:35.699Z,60.50
2017-11-05T02:21:03.885Z,61.70
2017-11-05T02:23:31.351Z,61.60
2017-11-05T02:25:58.798Z,62.20
2017-11-05T02:28:26.260Z,62.40
2017-11-05T02:30:53.710Z,62.50
2017-11-05T02:33:21.177Z,62.70
2017-11-05T02:35:48.628Z,62.70
2017-11-05T02:38:16.392Z,63.40
2017-11-05T02:40:43.833Z,63.60
2017-11-05T02:43:11.288Z,64.80
2017-11-05T02:45:38.756Z,64.20
2017-11-05T02:48:06.232Z,64.00
2017-11-05T02:50:33.974Z,63.70
2017-11-05T02:53:01.433Z,64.20
2017-11-05T02:55:28.892Z,64.30
2017-11-05T02:57:56.346Z,64.70
2017-11-05T03:00:23.823Z,65.20
2017-11-05T03:02:51.259Z,65.60
2017-11-05T03:05:18.688Z,65.80
2017-11-05T03:07:46.124Z,66.00
2017-11-05T03:10:13.544Z,65.90
2017-11-05T03:12:40.990Z,65.60
2017-11-05T03:15:08.424Z,65.20
2017-11-05T03:17:35.952Z,64.90
2017-11-05T03:20:03.381Z,65.00
2017-11-05T03:22:30.915Z,65.10
2017-11-05T03:24:58.345Z,65.20
2017-11-05T03:27:25.772Z,65.80
2017-11-05T03:29:53.275Z,66.30
2017-11-05T03:32:20.733Z,66.30
2017-11-05T03:34:48.172Z,66.30
2017-11-05T03:37:15.621Z,66.50
2017-11-05T03:39:43.071Z,66.50
2017-11-05T03:42:10.555Z,66.20
2017-11-05T03:44:38.076Z,66.20
2017-11-05T03:47:05.776Z,65.70
2017-11-05T03:49:33.212Z,64.90
2017-11-05T03:52:00.642Z,64.70
2017-11-05T03:54:28.073Z,63.80
2017-11-05T03:56:56.272Z,62.10
2017-11-05T03:59:23.709Z,62.00
2017-11-05T04:01:51.436Z,61.30
2017-11-05T04:04:18.904Z,61.40
2017-11-05T04:06:46.336Z,60.40
2017-11-05T04:09:13.777Z,60.00
2017-11-05T04:11:41.260Z,59.80
2017-11-05T04:14:08.814Z,59.70
2017-11-05T04:16:36.240Z,59.50
2017-11-05T04:19:03.937Z,59.40
2017-11-05T04:21:31.373Z,59.20
2017-11-05T04:23:58.848Z,59.20
2017-11-05T04:26:26.305Z,59.60
2017-11-05T04:28:53.736Z,59.20
2017-11-05T04:31:21.217Z,58.60
2017-11-05T04:33:48.678Z,58.30
2017-11-05T04:36:16.108Z,58.30
2017-11-05T04:38:43.533Z,58.30
2017-11-05T04:41:10.976Z,58.00
2017-11-05T04:43:38.404Z,58.10
2017-11-05T04:46:05.952Z,57.90
2017-11-05T04:48:33.408Z,57.90
2017-11-05T04:51:00.865Z,57.80
2017-11-05T04:53:28.320Z,57.70
2017-11-05T04:55:55.743Z,57.50
2017-11-05T04:58:23.176Z,57.60
2017-11-05T05:00:50.698Z,57.70
2017-11-05T05:03:18.137Z,58.10
2017-11-05T05:05:45.555Z,58.00
2017-11-05T05:08:12.995Z,57.80
2017-11-05T05:10:40.424Z,58.00
2017-11-05T05:13:07.968Z,58.40
2017-11-05T05:15:35.396Z,59.30
2017-11-05T05:18:02.892Z,60.30
2017-11-05T05:20:30.337Z,60.80
2017-11-05T05:22:57.776Z,61.80
2017-11-05T05:25:25.200Z,62.30
2017-11-05T05:27:52.652Z,62.70
2017-11-05T05:30:20.076Z,63.30
2017-11-05T05:32:47.620Z,63.30
2017-11-05T05:35:15.065Z,63.70
2017-11-05T05:37:42.494Z,63.70
2017-11-05T05:40:09.987Z,63.40
2017-11-05T05:42:37.449Z,63.80
2017-11-05T05:45:04.904Z,64.00
2017-11-05T05:47:32.336Z,63.70
2017-11-05T05:49:59.816Z,63.70
2017-11-05T05:52:27.244Z,63.70
2017-11-05T05:54:54.732Z,64.20
2017-11-05T05:57:22.160Z,64.00
2017-11-05T05:59:49.644Z,63.90
2017-11-05T06:02:17.091Z,63.80
2017-11-05T06:04:44.556Z,63.80
2017-11-05T06:07:11.996Z,64.00
2017-11-05T06:09:39.464Z,64.00
2017-11-05T06:12:06.907Z,64.30
2017-11-05T06:14:34.377Z,64.40
2017-11-05T06:17:01.831Z,64.40
2017-11-05T06:19:29.288Z,64.60
2017-11-05T06:21:56.723Z,64.60
2017-11-05T06:24:24.201Z,64.60
2017-11-05T06:26:51.657Z,64.80
2017-11-05T06:29:19.088Z,64.70
2017-11-05T06:31:46.774Z,64.70
2017-11-05T06:34:14.280Z,64.70
2017-11-05T06:36:41.792Z,64.70
2017-11-05T06:39:09.220Z,64.80
2017-11-05T06:41:36.701Z,64.30
2017-11-05T06:44:04.168Z,64.10
2017-11-05T06:46:31.611Z,64.10
2017-11-05T06:48:59.052Z,63.90
2017-11-05T06:51:26.523Z,64.00
2017-11-05T06:53:53.986Z,63.90
2017-11-05T06:56:21.418Z,63.80
2017-11-05T06:58:48.928Z,63.70
2017-11-05T07:01:16.356Z,63.60
2017-11-05T07:03:43.788Z,63.40
2017-11-05T07:06:11.216Z,63.20
2017-11-05T07:08:38.653Z,63.20
2017-11-05T07:11:06.083Z,63.00
2017-11-05T07:13:33.675Z,62.80
2017-11-05T07:16:01.223Z,62.40
2017-11-05T07:18:29.776Z,62.60
2017-11-05T07:20:57.206Z,62.40
2017-11-05T07:23:24.632Z,62.30
2017-11-05T07:25:52.140Z,62.20
2017-11-05T07:28:19.572Z,61.90
2017-11-05T07:30:47.004Z,62.10
2017-11-05T07:33:14.521Z,62.10
2017-11-05T07:35:41.964Z,61.90
2017-11-05T07:38:09.424Z,61.80
2017-11-05T07:40:37.080Z,61.80
2017-11-05T07:43:04.496Z,62.50
2017-11-05T07:45:32.718Z,58.30
2017-11-05T07:48:00.185Z,58.10
2017-11-05T07:50:27.625Z,56.50
2017-11-05T07:52:55.055Z,57.50
2017-11-05T07:55:22.476Z,57.50
2017-11-05T07:57:49.996Z,57.80
2017-11-05T08:00:17.449Z,58.30
2017-11-05T08:02:44.884Z,57.50
2017-11-05T08:05:12.362Z,56.00
2017-11-05T08:07:39.806Z,56.50
2017-11-05T08:10:07.224Z,56.50
2017-11-05T08:12:34.744Z,55.70
2017-11-05T08:15:02.193Z,55.70
2017-11-05T08:17:29.611Z,55.70
2017-11-05T08:19:57.143Z,55.70
2017-11-05T08:22:24.868Z,55.70
2017-11-05T08:24:52.304Z,55.00
2017-11-05T08:27:19.720Z,54.60
2017-11-05T08:29:47.230Z,55.20
2017-11-05T08:32:14.692Z,54.00
2017-11-05T08:34:42.119Z,52.70
2017-11-05T08:37:09.547Z,52.20
2017-11-05T08:39:37.984Z,56.90
2017-11-05T08:42:05.400Z,56.90
2017-11-05T08:44:32.896Z,55.70
2017-11-05T08:47:00.336Z,53.80
2017-11-05T08:49:27.809Z,54.50
2017-11-05T08:51:55.236Z,50.80
2017-11-05T08:54:22.668Z,51.40
2017-11-05T08:56:50.304Z,51.10
2017-11-05T08:59:17.856Z,51.30
2017-11-05T09:01:45.464Z,51.00
2017-11-05T09:04:13.712Z,50.50
2017-11-05T09:06:41.136Z,50.50
2017-11-05T09:09:08.685Z,49.90
2017-11-05T09:11:36.109Z,50.00
2017-11-05T09:14:03.599Z,49.20
2017-11-05T09:16:31.025Z,48.90
2017-11-05T09:18:58.463Z,46.70
2017-11-05T09:21:25.889Z,48.80
2017-11-05T09:23:53.419Z,49.10
2017-11-05T09:26:20.875Z,48.50
2017-11-05T09:28:48.329Z,46.40
2017-11-05T09:31:15.748Z,47.20
2017-11-05T09:33:43.260Z,48.10
2017-11-05T09:36:10.880Z,48.20
2017-11-05T09:38:38.304Z,48.10
2017-11-05T09:41:05.715Z,48.40
2017-11-05T09:43:33.380Z,48.00
2017-11-05T09:46:01.012Z,46.90
2017-11-05T09:48:29.440Z,45.10
2017-11-05T09:50:56.981Z,45.10
2017-11-05T09:53:24.672Z,45.60
2017-11-05T09:55:52.144Z,46.00
2017-11-05T09:58:19.652Z,45.50
2017-11-05T10:00:47.109Z,45.60
2017-11-05T10:03:14.563Z,46.00
2017-11-05T10:05:41.992Z,45.50
2017-11-05T10:08:09.420Z,46.00
2017-11-05T10:10:36.932Z,47.30
2017-11-05T10:13:04.697Z,46.40
2017-11-05T10:15:32.130Z,45.60
2017-11-05T10:17:59.557Z,47.80
2017-11-05T10:20:27.062Z,44.60
2017-11-05T10:22:54.524Z,46.50
2017-11-05T10:25:22.156Z,47.30
2017-11-05T10:27:49.673Z,48.30
2017-11-05T10:30:17.210Z,47.60
2017-11-05T10:32:44.662Z,46.40
2017-11-05T10:35:12.100Z,44.60
2017-11-05T10:37:39.619Z,43.80
2017-11-05T10:40:07.240Z,44.00
2017-11-05T10:42:34.685Z,44.70
2017-11-05T10:45:02.160Z,42.00
2017-11-05T10:47:29.700Z,42.80
2017-11-05T10:49:57.132Z,42.30
2017-11-05T10:52:24.552Z,43.50
2017-11-05T10:54:52.005Z,45.80
2017-11-05T10:57:19.428Z,45.10
2017-11-05T10:59:46.981Z,45.30
2017-11-05T11:02:14.397Z,45.20
2017-11-05T11:07:14.464Z,46.70
2017-11-05T11:09:41.895Z,45.70
2017-11-05T11:12:09.320Z,45.50
2017-11-05T11:14:36.956Z,44.00
2017-11-05T11:17:04.372Z,45.10
2017-11-05T11:19:31.799Z,46.10
2017-11-05T11:21:59.345Z,46.00
2017-11-05T11:24:26.784Z,46.10
2017-11-05T11:26:54.223Z,46.00
2017-11-05T11:29:21.692Z,46.10
2017-11-05T11:31:49.181Z,43.50
2017-11-05T11:34:16.907Z,44.20
2017-11-05T11:36:44.347Z,44.20
2017-11-05T11:39:11.765Z,43.20
2017-11-05T11:41:39.205Z,44.10
2017-11-05T11:44:06.624Z,44.30
2017-11-05T11:46:34.072Z,44.00
2017-11-05T11:49:02.755Z,44.50
2017-11-05T11:51:30.402Z,44.20
2017-11-05T11:53:58.083Z,43.70
2017-11-05T11:56:25.545Z,43.40
2017-11-05T11:58:52.996Z,42.90
2017-11-05T12:01:20.431Z,42.40
2017-11-05T12:03:47.915Z,42.40
2017-11-05T12:06:15.372Z,43.10
2017-11-05T12:08:42.799Z,42.50
2017-11-05T12:11:10.476Z,42.30
2017-11-05T12:13:37.911Z,41.70
2017-11-05T12:16:05.537Z,40.20
2017-11-05T12:18:32.948Z,40.70
2017-11-05T12:21:00.373Z,40.50
2017-11-05T12:23:27.816Z,40.70
2017-11-05T12:25:55.316Z,39.60
2017-11-05T12:28:22.749Z,38.80
2017-11-05T12:30:50.965Z,38.20
2017-11-05T12:33:18.399Z,38.20
2017-11-05T12:35:45.942Z,38.50
2017-11-05T12:38:13.524Z,39.00
2017-11-05T12:40:40.983Z,38.70
2017-11-05T12:43:08.416Z,39.00
2017-11-05T12:45:35.888Z,38.80
2017-11-05T12:48:03.487Z,38.80
2017-11-05T12:50:30.911Z,36.80
2017-11-05T12:52:58.464Z,36.80
2017-11-05T12:55:26.027Z,36.80
2017-11-05T12:57:53.784Z,36.90
2017-11-05T13:00:21.218Z,35.10
2017-11-05T13:02:48.639Z,34.80
2017-11-05T13:05:16.072Z,35.40
2017-11-05T13:07:43.501Z,34.50
2017-11-05T13:10:10.927Z,34.60
2017-11-05T13:12:39.114Z,33.20
2017-11-05T13:15:06.540Z,33.10
2017-11-05T13:17:33.964Z,32.60
2017-11-05T13:20:01.388Z,33.70
2017-11-05T13:22:28.824Z,33.30
2017-11-05T13:24:57.008Z,33.40
2017-11-05T13:27:25.331Z,33.70
2017-11-05T13:29:52.764Z,33.70
2017-11-05T13:32:20.189Z,34.40
2017-11-05T13:34:47.635Z,33.40
2017-11-05T13:37:16.124Z,33.70
2017-11-05T13:39:43.543Z,33.60
2017-11-05T13:42:10.976Z,33.30
2017-11-05T13:44:38.402Z,32.80
2017-11-05T13:47:05.816Z,33.80
2017-11-05T13:49:33.248Z,33.00
2017-11-05T13:52:00.672Z,34.00
2017-11-05T13:54:28.100Z,33.20
2017-11-05T13:56:55.525Z,33.60
2017-11-05T13:59:22.956Z,32.90
2017-11-05T14:01:50.389Z,33.30
2017-11-05T14:04:17.820Z,31.90
2017-11-05T14:06:45.240Z,32.40
2017-11-05T14:09:12.673Z,30.70
2017-11-05T14:11:40.092Z,31.20
2017-11-05T14:14:08.291Z,31.40
2017-11-05T14:16:35.700Z,31.40
2017-11-05T14:19:03.184Z,31.50
2017-11-05T14:21:30.604Z,31.00
2017-11-05T14:23:58.025Z,31.20
2017-11-05T14:26:25.462Z,31.50
2017-11-05T14:28:52.880Z,31.60
2017-11-05T14:31:20.312Z,31.50
2017-11-05T14:33:47.766Z,31.00
2017-11-05T14:36:15.321Z,30.40
2017-11-05T14:38:42.772Z,31.50
2017-11-05T14:41:10.356Z,30.70
2017-11-05T14:43:38.092Z,29.60
2017-11-05T14:46:05.538Z,29.70
2017-11-05T14:48:32.957Z,29.60
2017-11-05T14:51:01.157Z,30.10
2017-11-05T14:53:28.576Z,30.10
2017-11-05T14:55:56.774Z,30.00
2017-11-05T14:58:24.960Z,30.60
2017-11-05T15:00:52.397Z,30.60
2017-11-05T15:03:20.091Z,30.60
2017-11-05T15:05:47.525Z,30.60
2017-11-05T15:08:14.952Z,30.60
2017-11-05T15:10:42.568Z,30.60
2017-11-05T15:13:09.983Z,30.60
2017-11-05T15:15:37.472Z,31.00
2017-11-05T15:18:04.934Z,31.10
2017-11-05T15:20:32.352Z,31.50
2017-11-05T15:22:59.787Z,32.00
2017-11-05T15:25:27.217Z,32.00
2017-11-05T15:27:54.652Z,32.20
2017-11-05T15:30:22.084Z,32.40
2017-11-05T15:32:49.515Z,32.80
2017-11-05T15:35:17.706Z,33.10
2017-11-05T15:37:45.137Z,33.10
2017-11-05T15:40:12.561Z,32.60
2017-11-05T15:42:39.992Z,32.60
2017-11-05T15:45:07.416Z,31.60
2017-11-05T15:47:35.633Z,31.80
2017-11-05T15:50:03.064Z,31.80
2017-11-05T15:52:30.492Z,31.90
2017-11-05T15:54:57.928Z,31.70
2017-11-05T15:57:25.353Z,31.90
2017-11-05T15:59:52.786Z,32.30
2017-11-05T16:02:20.208Z,32.50
2017-11-05T16:04:47.777Z,33.50
2017-11-05T16:07:15.316Z,36.90
2017-11-05T16:09:42.920Z,35.60
2017-11-05T16:12:10.408Z,34.30
2017-11-05T16:14:37.957Z,33.10
2017-11-05T16:17:05.412Z,32.80
2017-11-05T16:19:37.576Z,32.70
2017-11-05T16:22:04.978Z,33.00
2017-11-05T16:24:32.444Z,34.20
2017-11-05T16:26:59.877Z,34.40
2017-11-05T16:29:27.610Z,35.00
2017-11-05T16:31:55.025Z,35.10
2017-11-05T16:34:22.444Z,35.30
2017-11-05T16:36:49.977Z,35.50
2017-11-05T16:39:17.395Z,35.30
2017-11-05T16:41:44.892Z,35.80
2017-11-05T16:44:12.308Z,36.20
2017-11-05T16:46:39.804Z,35.90
2017-11-05T16:49:07.260Z,36.50
2017-11-05T16:51:34.687Z,36.50
2017-11-05T16:54:02.176Z,36.40
2017-11-05T16:56:29.601Z,36.40
2017-11-05T16:58:57.021Z,36.80
2017-11-05T17:01:24.489Z,37.20
2017-11-05T17:03:51.997Z,37.30
2017-11-05T17:06:19.419Z,37.10
2017-11-05T17:08:46.917Z,37.40
2017-11-05T17:11:14.343Z,37.20
2017-11-05T17:13:41.761Z,37.10
2017-11-05T17:16:09.176Z,36.90
2017-11-05T17:18:36.692Z,36.70
2017-11-05T17:21:04.192Z,36.60
2017-11-05T17:23:31.621Z,36.70
2017-11-05T17:25:59.104Z,36.50
2017-11-05T17:28:26.595Z,36.80
2017-11-05T17:30:54.192Z,37.00
2017-11-05T17:33:21.724Z,37.10
2017-11-05T17:35:49.233Z,37.00
2017-11-05T17:38:16.697Z,36.90
2017-11-05T17:40:44.132Z,36.90
2017-11-05T17:43:11.578Z,37.10
2017-11-05T17:45:39.058Z,37.50
2017-11-05T17:48:06.835Z,37.90
2017-11-05T17:50:34.284Z,38.30
2017-11-05T17:53:01.943Z,38.20
2017-11-05T17:55:29.504Z,38.20
2017-11-05T17:57:57.349Z,38.70
2017-11-05T18:00:24.776Z,38.80
2017-11-05T18:02:52.486Z,39.10
2017-11-05T18:05:19.937Z,39.10
2017-11-05T18:07:47.357Z,39.40
2017-11-05T18:10:14.789Z,39.50
2017-11-05T18:12:42.306Z,39.90
2017-11-05T18:15:09.736Z,40.10
2017-11-05T18:17:37.156Z,40.20
2017-11-05T18:20:05.531Z,40.70
2017-11-05T18:22:32.936Z,40.60
2017-11-05T18:25:00.405Z,40.60
2017-11-05T18:27:27.864Z,40.50
2017-11-05T18:29:55.336Z,40.70
2017-11-05T18:32:22.892Z,40.90
2017-11-05T18:34:50.334Z,40.90
2017-11-05T18:37:17.765Z,40.80
2017-11-05T18:39:45.191Z,40.70
2017-11-05T18:42:13.605Z,41.00
2017-11-05T18:44:41.025Z,41.00
2017-11-05T18:47:08.457Z,40.80
2017-11-05T18:49:35.986Z,40.80
2017-11-05T18:52:03.452Z,40.90
2017-11-05T18:54:30.876Z,40.90
2017-11-05T18:56:58.312Z,41.10
2017-11-05T18:59:25.728Z,41.00
2017-11-05T19:01:53.276Z,40.80
2017-11-05T19:04:20.704Z,40.20
2017-11-05T19:06:48.185Z,40.30
2017-11-05T19:09:15.610Z,39.80
2017-11-05T19:11:43.098Z,39.40
2017-11-05T19:14:10.525Z,39.70
2017-11-05T19:16:38.015Z,40.20
2017-11-05T19:19:05.486Z,40.70
2017-11-05T19:21:33.232Z,41.30
2017-11-05T19:24:00.661Z,41.80
2017-11-05T19:26:28.079Z,42.30
2017-11-05T19:28:55.497Z,42.50
2017-11-05T19:31:22.917Z,42.30
2017-11-05T19:33:51.127Z,42.10
2017-11-05T19:36:18.559Z,42.10
2017-11-05T19:38:46.040Z,42.20
2017-11-05T19:41:13.464Z,42.40
2017-11-05T19:43:40.892Z,42.00
2017-11-05T19:46:08.557Z,41.80
2017-11-05T19:48:36.172Z,41.60
2017-11-05T19:51:03.600Z,41.60
2017-11-05T19:53:31.028Z,41.70
2017-11-05T19:55:58.444Z,41.80
2017-11-05T19:58:25.868Z,41.50
2017-11-05T20:00:53.352Z,41.50
2017-11-05T20:03:20.805Z,41.60
2017-11-05T20:05:48.220Z,41.30
2017-11-05T20:08:16.409Z,41.00
2017-11-05T20:10:43.888Z,41.00
2017-11-05T20:13:11.305Z,41.30
2017-11-05T20:15:38.804Z,41.20
2017-11-05T20:18:06.501Z,40.70
2017-11-05T20:20:33.933Z,40.80
2017-11-05T20:23:01.484Z,40.90
2017-11-05T20:25:28.940Z,41.00
2017-11-05T20:27:56.389Z,41.20
2017-11-05T20:30:23.829Z,41.30
2017-11-05T20:32:51.249Z,41.20
2017-11-05T20:35:18.672Z,41.30
2017-11-05T20:37:46.216Z,42.00
2017-11-05T20:40:13.653Z,42.20
2017-11-05T20:42:41.075Z,42.30
2017-11-05T20:45:09.385Z,42.10
2017-11-05T20:47:36.876Z,42.10
2017-11-05T20:50:04.425Z,41.80
2017-11-05T20:52:31.876Z,41.70
2017-11-05T20:54:59.336Z,41.50
2017-11-05T20:57:26.768Z,40.90
2017-11-05T20:59:54.184Z,40.40
2017-11-05T21:02:21.612Z,40.40
2017-11-05T21:04:49.091Z,39.70
2017-11-05T21:07:16.613Z,39.40
2017-11-05T21:09:44.046Z,39.20
2017-11-05T21:12:11.528Z,39.00
2017-11-05T21:14:38.987Z,38.80
2017-11-05T21:17:06.416Z,38.80
2017-11-05T21:19:33.832Z,38.50
2017-11-05T21:22:01.256Z,38.50
2017-11-05T21:24:28.808Z,38.70
2017-11-05T21:26:56.249Z,38.50
2017-11-05T21:29:23.669Z,38.50
2017-11-05T21:31:51.087Z,38.60
2017-11-05T21:34:19.184Z,38.70
2017-11-05T21:36:46.584Z,38.70
2017-11-05T21:39:14.164Z,39.60
2017-11-05T21:41:41.580Z,40.30
2017-11-05T21:44:09.011Z,40.30
2017-11-05T21:46:36.532Z,40.90
2017-11-05T21:49:03.960Z,41.10
2017-11-05T21:51:31.444Z,41.20
2017-11-05T21:53:58.893Z,41.20
2017-11-05T21:56:26.308Z,41.30
2017-11-05T21:58:53.752Z,41.20
2017-11-05T22:01:21.265Z,41.10
2017-11-05T22:03:48.676Z,41.10
2017-11-05T22:06:16.176Z,41.10
2017-11-05T22:08:43.633Z,41.40
2017-11-05T22:11:11.065Z,41.80
2017-11-05T22:13:38.480Z,42.00
2017-11-05T22:16:05.908Z,41.00
2017-11-05T22:18:33.368Z,41.30
2017-11-05T22:21:00.914Z,41.80
2017-11-05T22:23:28.372Z,40.80
2017-11-05T22:25:55.828Z,40.10
2017-11-05T22:28:23.244Z,39.80
2017-11-05T22:30:50.739Z,39.10
2017-11-05T22:33:18.192Z,38.90
2017-11-05T22:35:45.612Z,37.50
2017-11-05T22:38:13.032Z,36.80
2017-11-05T22:40:40.464Z,36.70
2017-11-05T22:43:08.040Z,37.10
2017-11-05T22:45:35.771Z,37.40
2017-11-05T22:48:03.199Z,37.50
2017-11-05T22:50:30.624Z,36.50
2017-11-05T22:52:58.152Z,35.80
2017-11-05T22:55:25.608Z,36.20
2017-11-05T22:57:53.068Z,36.40
2017-11-05T23:00:20.500Z,36.30
2017-11-05T23:02:47.929Z,36.10
2017-11-05T23:05:15.436Z,35.90
2017-11-05T23:07:42.860Z,35.60
2017-11-05T23:10:10.346Z,36.20
2017-11-05T23:12:37.756Z,35.80
2017-11-05T23:15:05.179Z,35.80
2017-11-05T23:17:32.621Z,35.10
2017-11-05T23:20:00.171Z,35.30
2017-11-05T23:22:27.636Z,35.80
2017-11-05T23:24:55.263Z,35.70
2017-11-05T23:27:22.712Z,36.10
2017-11-05T23:29:50.212Z,36.60
2017-11-05T23:32:17.640Z,36.80
2017-11-05T23:34:45.220Z,36.60
2017-11-05T23:37:12.837Z,36.30
2017-11-05T23:39:41.052Z,35.80
2017-11-05T23:42:08.472Z,36.70
2017-11-05T23:44:35.905Z,37.00
2017-11-05T23:47:03.418Z,36.90
2017-11-05T23:49:30.875Z,36.70
2017-11-05T23:51:58.292Z,36.40
2017-11-05T23:54:25.792Z,36.80
2017-11-05T23:56:54.165Z,37.10
2017-11-05T23:59:21.588Z,37.00
